Time;durP1;ratioP1;P1;durP2;ratioP2;P2;SDS_P1;SDS_P2;PMS_P1;PMS_P2;Temp;Humidity;BMP_temperature;BMP_pressure;BME280_temperature;BME280_humidity;BME280_pressure;Samples;Min_cycle;Max_cycle;Signal;HPM_P1;HPM_P2
2021/03/23 00:00:28;;;;;;;24.42;7.78;;;;;;;4.19;100.00;102653.25;5075835;28;20397;-66
2021/03/23 00:03:03;;;;;;;26.30;8.48;;;;;;;4.30;100.00;102656.84;5085777;28;20469;-66
2021/03/23 00:05:29;;;;;;;17.67;7.72;;;;;;;4.31;100.00;102650.72;5089480;28;20079;-66
2021/03/23 00:07:54;;;;;;;19.38;8.10;;;;;;;4.38;100.00;102652.56;5086400;28;20036;-66
2021/03/23 00:10:25;;;;;;;11.63;6.63;;;;;;;4.44;100.00;102656.13;5085124;28;20034;-66
2021/03/23 00:12:50;;;;;;;18.98;7.97;;;;;;;4.49;100.00;102649.19;5088674;28;20089;-66
2021/03/23 00:15:17;;;;;;;15.18;7.78;;;;;;;4.51;100.00;102640.47;5088940;28;20024;-66
2021/03/23 00:17:43;;;;;;;20.95;9.27;;;;;;;4.77;100.00;102645.03;5090294;28;20031;-67
2021/03/23 00:20:11;;;;;;;16.70;8.55;;;;;;;4.73;100.00;102651.16;5087997;28;20043;-66
2021/03/23 00:22:37;;;;;;;25.85;9.90;;;;;;;4.75;100.00;102650.28;5090070;28;20028;-66
2021/03/23 00:25:05;;;;;;;23.90;8.85;;;;;;;4.71;100.00;102651.13;5088811;28;20056;-66
2021/03/23 00:27:30;;;;;;;26.73;8.80;;;;;;;4.81;100.00;102649.44;5089732;28;20032;-66
2021/03/23 00:29:56;;;;;;;22.80;10.13;;;;;;;4.73;100.00;102651.16;5088681;28;20039;-66
2021/03/23 00:32:21;;;;;;;26.35;9.50;;;;;;;4.79;100.00;102652.06;5088998;28;20024;-66
2021/03/23 00:34:47;;;;;;;20.65;8.93;;;;;;;4.78;100.00;102649.44;5088588;28;20429;-66
2021/03/23 00:37:12;;;;;;;19.23;8.40;;;;;;;4.79;100.00;102653.81;5092670;28;20036;-67
2021/03/23 00:39:38;;;;;;;30.48;10.82;;;;;;;4.85;100.00;102654.72;5087103;28;20047;-68
2021/03/23 00:42:05;;;;;;;21.05;9.27;;;;;;;4.96;100.00;102654.81;5088646;28;20344;-66
2021/03/23 00:44:31;;;;;;;27.42;11.23;;;;;;;5.05;100.00;102651.38;5094097;28;20035;-66
2021/03/23 00:46:56;;;;;;;31.45;11.85;;;;;;;5.16;100.00;102647.09;5069339;28;20134;-67
2021/03/23 00:49:21;;;;;;;23.75;10.85;;;;;;;5.24;100.00;102650.66;5091867;28;20039;-66
2021/03/23 00:51:46;;;;;;;31.52;11.35;;;;;;;5.18;100.00;102637.50;5089473;28;20043;-66
2021/03/23 00:54:12;;;;;;;24.63;10.70;;;;;;;5.15;100.00;102635.75;5072991;28;20044;-66
2021/03/23 00:56:37;;;;;;;20.92;10.57;;;;;;;5.22;100.00;102631.44;5089221;28;20043;-67
2021/03/23 00:59:02;;;;;;;21.88;10.75;;;;;;;5.25;100.00;102634.06;5094136;28;20028;-66
2021/03/23 01:01:28;;;;;;;27.25;11.38;;;;;;;5.03;100.00;102630.41;5084342;28;20078;-66
2021/03/23 01:03:53;;;;;;;22.33;11.75;;;;;;;5.00;100.00;102629.50;5089249;28;20027;-66
2021/03/23 01:06:18;;;;;;;28.02;11.57;;;;;;;4.93;100.00;102632.09;5089480;28;20035;-66
2021/03/23 01:08:44;;;;;;;24.15;10.43;;;;;;;4.80;100.00;102632.84;5086304;28;20041;-66
2021/03/23 01:11:09;;;;;;;25.15;12.02;;;;;;;4.90;100.00;102631.19;5090025;28;20036;-66
2021/03/23 01:13:34;;;;;;;23.17;11.77;;;;;;;4.76;100.00;102622.34;5089494;28;20031;-66
2021/03/23 01:16:00;;;;;;;26.20;11.43;;;;;;;4.73;100.00;102620.59;5088080;28;20416;-66
2021/03/23 01:18:25;;;;;;;25.75;13.93;;;;;;;4.65;100.00;102638.84;5090621;28;20020;-66
2021/03/23 01:20:50;;;;;;;23.73;10.98;;;;;;;4.64;100.00;102631.84;5086416;28;20059;-66
2021/03/23 01:23:15;;;;;;;25.52;12.50;;;;;;;4.70;100.00;102633.66;5088267;28;20028;-66
2021/03/23 01:25:42;;;;;;;29.58;12.38;;;;;;;4.82;100.00;102625.91;5087028;28;20477;-66
2021/03/23 01:28:07;;;;;;;34.08;12.45;;;;;;;4.86;100.00;102626.78;5089997;28;20024;-67
2021/03/23 01:30:32;;;;;;;25.50;11.75;;;;;;;4.96;100.00;102626.00;5086481;28;20054;-66
2021/03/23 01:32:58;;;;;;;32.22;12.52;;;;;;;5.03;100.00;102624.31;5070671;28;20048;-66
2021/03/23 01:35:26;;;;;;;27.75;11.65;;;;;;;5.01;100.00;102624.28;5093673;28;20016;-66
2021/03/23 01:37:52;;;;;;;28.30;11.68;;;;;;;5.10;100.00;102623.47;5069525;28;20042;-66
2021/03/23 01:40:22;;;;;;;30.30;13.75;;;;;;;5.14;100.00;102625.25;5071047;28;20793;-66
2021/03/23 01:42:53;;;;;;;26.63;12.15;;;;;;;5.14;100.00;102627.88;5088016;28;20025;-66
2021/03/23 01:45:36;;;;;;;27.02;11.52;;;;;;;5.24;100.00;102619.19;5090829;28;20554;-67
2021/03/23 01:48:14;;;;;;;30.92;13.40;;;;;;;5.28;100.00;102610.50;5086451;28;20028;-66
2021/03/23 01:50:40;;;;;;;29.40;12.82;;;;;;;5.20;100.00;102605.19;5088501;28;20030;-67
2021/03/23 01:53:13;;;;;;;28.42;12.98;;;;;;;5.22;100.00;102609.56;5089098;28;20419;-66
2021/03/23 01:55:39;;;;;;;30.77;13.77;;;;;;;5.18;100.00;102606.06;5087830;28;20443;-66
2021/03/23 01:58:06;;;;;;;26.13;12.68;;;;;;;5.20;100.00;102612.19;5087647;28;20028;-67
2021/03/23 02:00:32;;;;;;;34.85;14.63;;;;;;;5.23;100.00;102600.84;5088312;28;20024;-66
2021/03/23 02:02:58;;;;;;;25.25;13.80;;;;;;;5.24;100.00;102600.84;5088479;28;20339;-66
2021/03/23 02:05:28;;;;;;;29.17;13.18;;;;;;;5.19;100.00;102602.56;5086929;28;20339;-66
2021/03/23 02:07:55;;;;;;;38.10;14.07;;;;;;;5.20;100.00;102597.31;5086198;28;20085;-66
2021/03/23 02:10:21;;;;;;;30.27;14.35;;;;;;;5.32;100.00;102591.28;5087643;28;20035;-66
2021/03/23 02:12:48;;;;;;;32.25;15.07;;;;;;;5.27;100.00;102594.72;5087378;28;20022;-66
2021/03/23 02:15:14;;;;;;;35.42;15.02;;;;;;;5.26;100.00;102591.22;5088479;28;20484;-66
2021/03/23 02:17:40;;;;;;;29.30;13.90;;;;;;;5.19;100.00;102590.34;5086038;28;20111;-66
2021/03/23 02:20:14;;;;;;;29.95;14.27;;;;;;;5.18;100.00;102582.47;5087075;28;20106;-68
2021/03/23 02:22:45;;;;;;;35.83;14.32;;;;;;;5.17;100.00;102584.22;5087385;28;20110;-66
2021/03/23 02:25:25;;;;;;;33.10;15.00;;;;;;;5.22;100.00;102586.88;5087727;28;20036;-66
2021/03/23 02:27:53;;;;;;;40.78;16.05;;;;;;;5.20;100.00;102581.59;5085083;28;20044;-66
2021/03/23 02:30:26;;;;;;;28.23;14.82;;;;;;;5.26;100.00;102572.00;5088101;28;20695;-66
2021/03/23 02:32:52;;;;;;;30.75;15.02;;;;;;;5.20;100.00;102576.34;5093263;28;20115;-66
2021/03/23 02:35:17;;;;;;;39.97;15.68;;;;;;;5.09;100.00;102572.78;5091482;28;20150;-66
2021/03/23 02:37:42;;;;;;;38.50;16.42;;;;;;;5.16;100.00;102571.06;5091635;28;20040;-65
2021/03/23 02:40:08;;;;;;;36.05;16.42;;;;;;;5.10;100.00;102571.06;5072331;28;20054;-66
2021/03/23 02:42:33;;;;;;;30.30;15.63;;;;;;;5.07;100.00;102564.06;5091894;28;20099;-66
2021/03/23 02:44:59;;;;;;;40.70;17.25;;;;;;;5.01;100.00;102557.88;5092013;28;20044;-66
2021/03/23 02:47:24;;;;;;;43.28;17.23;;;;;;;5.04;100.00;102564.03;5073591;28;20060;-66
2021/03/23 02:49:50;;;;;;;34.03;16.92;;;;;;;5.02;100.00;102567.50;5094680;28;20032;-66
2021/03/23 02:52:17;;;;;;;35.40;18.60;;;;;;;4.91;100.00;102570.06;5090573;28;20028;-66
2021/03/23 02:54:42;;;;;;;40.97;17.20;;;;;;;4.99;100.00;102557.88;5090869;28;20044;-66
2021/03/23 02:57:08;;;;;;;44.83;18.73;;;;;;;4.87;100.00;102558.69;5089695;28;20020;-66
2021/03/23 02:59:34;;;;;;;45.13;19.05;;;;;;;4.82;100.00;102560.41;5092467;28;20032;-66
2021/03/23 03:02:00;;;;;;;36.17;16.70;;;;;;;4.83;100.00;102556.03;5090159;28;20111;-66
2021/03/23 03:04:25;;;;;;;39.65;18.95;;;;;;;4.98;100.00;102555.28;5091856;28;20047;-66
2021/03/23 03:06:50;;;;;;;34.90;18.20;;;;;;;4.86;100.00;102564.78;5087851;28;20040;-66
2021/03/23 03:09:17;;;;;;;37.28;17.63;;;;;;;4.88;100.00;102555.22;5090694;28;20026;-66
2021/03/23 03:11:43;;;;;;;42.83;19.10;;;;;;;4.77;100.00;102548.13;5087249;28;22028;-66
2021/03/23 03:14:08;;;;;;;40.70;19.33;;;;;;;4.85;100.00;102552.56;5091874;28;20036;-66
2021/03/23 03:16:33;;;;;;;38.53;17.20;;;;;;;4.82;100.00;102560.41;5088612;28;20438;-66
2021/03/23 03:18:58;;;;;;;45.38;20.30;;;;;;;4.79;100.00;102565.63;5090443;28;20027;-66
2021/03/23 03:21:24;;;;;;;35.67;18.88;;;;;;;4.72;100.00;102555.06;5090718;28;20034;-66
2021/03/23 03:23:49;;;;;;;47.40;20.00;;;;;;;4.68;100.00;102555.06;5087911;28;20028;-66
2021/03/23 03:26:15;;;;;;;41.47;19.85;;;;;;;4.72;100.00;102555.97;5090712;28;20032;-66
2021/03/23 03:28:40;;;;;;;41.15;18.95;;;;;;;4.81;100.00;102555.13;5090454;28;20028;-69
2021/03/23 03:31:14;;;;;;;45.03;21.05;;;;;;;4.84;100.00;102558.66;5087975;28;20136;-67
2021/03/23 03:33:40;;;;;;;37.42;18.83;;;;;;;4.87;100.00;102550.84;5090272;28;20102;-66
2021/03/23 03:36:05;;;;;;;40.50;19.45;;;;;;;4.74;100.00;102559.47;5089515;28;20020;-66
2021/03/23 03:38:30;;;;;;;42.45;21.30;;;;;;;4.79;100.00;102560.38;5074703;28;20028;-66
2021/03/23 03:40:58;;;;;;;46.15;19.65;;;;;;;4.74;100.00;102556.84;5089769;28;20116;-66
2021/03/23 03:43:27;;;;;;;42.05;18.92;;;;;;;4.69;100.00;102569.03;5089475;28;20039;-67
2021/03/23 03:45:53;;;;;;;42.72;21.55;;;;;;;4.71;100.00;102564.69;5090160;28;20561;-66
2021/03/23 03:48:18;;;;;;;40.13;21.02;;;;;;;4.77;100.00;102561.22;5096400;28;20035;-66
2021/03/23 03:50:44;;;;;;;48.08;22.13;;;;;;;4.80;100.00;102559.50;5088497;28;20059;-66
2021/03/23 03:53:11;;;;;;;37.10;19.25;;;;;;;4.77;100.00;102556.88;5089802;28;20063;-66
2021/03/23 03:55:42;;;;;;;40.38;19.52;;;;;;;4.84;100.00;102555.16;5090768;28;20109;-66
2021/03/23 03:58:08;;;;;;;50.70;20.52;;;;;;;4.84;100.00;102547.31;5088967;28;20036;-67
2021/03/23 04:00:35;;;;;;;40.05;18.98;;;;;;;4.85;100.00;102552.56;5090119;28;20039;-68
2021/03/23 04:03:02;;;;;;;43.38;19.90;;;;;;;4.92;100.00;102545.63;5090677;28;20051;-68
2021/03/23 04:05:29;;;;;;;41.78;20.77;;;;;;;5.00;100.00;102546.53;5088598;28;20031;-66
2021/03/23 04:07:55;;;;;;;41.60;19.83;;;;;;;5.07;100.00;102558.81;5090989;28;20047;-66
2021/03/23 04:10:21;;;;;;;37.22;19.20;;;;;;;5.00;100.00;102551.78;5088890;28;20028;-66
2021/03/23 04:12:47;;;;;;;43.90;20.45;;;;;;;4.97;100.00;102553.50;5089545;28;20016;-66
2021/03/23 04:15:34;;;;;;;38.08;20.30;;;;;;;5.03;100.00;102553.56;5088258;28;20047;-66
2021/03/23 04:18:00;;;;;;;48.75;20.92;;;;;;;4.97;100.00;102551.78;5088244;28;20040;-66
2021/03/23 04:20:27;;;;;;;41.80;20.40;;;;;;;4.99;100.00;102554.41;5086979;28;20043;-66
2021/03/23 04:22:53;;;;;;;40.83;20.40;;;;;;;5.05;100.00;102554.41;5087691;28;20038;-67
2021/03/23 04:25:22;;;;;;;45.75;21.50;;;;;;;5.01;100.00;102556.13;5093701;28;20085;-66
2021/03/23 04:27:49;;;;;;;41.97;20.08;;;;;;;5.12;100.00;102551.88;5069447;28;20081;-66
2021/03/23 04:30:16;;;;;;;44.78;22.25;;;;;;;5.12;100.00;102561.44;5089439;28;20035;-66
2021/03/23 04:32:42;;;;;;;42.88;20.80;;;;;;;5.09;100.00;102559.69;5088583;28;20032;-66
2021/03/23 04:35:11;;;;;;;45.45;20.08;;;;;;;5.08;100.00;102563.19;5090052;28;20376;-66
2021/03/23 04:37:38;;;;;;;54.75;26.80;;;;;;;5.15;100.00;102564.09;5086185;28;20109;-66
2021/03/23 04:40:04;;;;;;;45.20;24.73;;;;;;;5.27;100.00;102560.66;5092118;28;20084;-65
2021/03/23 04:42:30;;;;;;;49.33;23.83;;;;;;;5.17;100.00;102560.63;5085541;28;20032;-66
2021/03/23 04:44:55;;;;;;;61.05;27.30;;;;;;;5.17;100.00;102568.50;5089790;28;20035;-66
2021/03/23 04:47:20;;;;;;;55.40;29.75;;;;;;;5.17;100.00;102567.59;5073165;28;20047;-66
2021/03/23 04:49:45;;;;;;;67.78;32.17;;;;;;;5.15;100.00;102554.47;5089433;28;20039;-66
2021/03/23 04:52:11;;;;;;;64.43;31.55;;;;;;;5.18;100.00;102556.25;5088308;28;20047;-66
2021/03/23 04:54:36;;;;;;;67.05;31.58;;;;;;;5.10;100.00;102558.81;5086913;28;20878;-66
2021/03/23 04:57:01;;;;;;;66.90;31.92;;;;;;;5.07;100.00;102555.28;5088298;28;20585;-66
2021/03/23 04:59:27;;;;;;;76.88;33.75;;;;;;;5.16;100.00;102552.72;5088582;28;20024;-66
2021/03/23 05:01:52;;;;;;;74.35;32.90;;;;;;;5.09;100.00;102564.94;5088247;28;20177;-66
2021/03/23 05:04:19;;;;;;;73.13;34.58;;;;;;;5.12;100.00;102564.06;5092122;28;20078;-66
2021/03/23 05:06:44;;;;;;;92.05;34.15;;;;;;;5.03;100.00;102562.28;5089941;28;20665;-67
2021/03/23 05:09:10;;;;;;;76.72;33.80;;;;;;;5.06;100.00;102558.78;5090255;28;20043;-66
2021/03/23 05:11:35;;;;;;;78.55;34.70;;;;;;;5.07;100.00;102560.53;5070134;28;20027;-66
2021/03/23 05:14:02;;;;;;;75.78;34.22;;;;;;;5.17;100.00;102568.50;5090564;28;20028;-65
2021/03/23 05:16:28;;;;;;;64.88;33.58;;;;;;;5.16;100.00;102571.94;5089108;28;20020;-66
2021/03/23 05:18:54;;;;;;;77.68;32.97;;;;;;;5.11;100.00;102576.28;5087365;28;20023;-66
2021/03/23 05:21:20;;;;;;;87.68;36.35;;;;;;;5.16;100.00;102574.56;5090051;28;20180;-66
2021/03/23 05:23:46;;;;;;;76.57;35.63;;;;;;;5.15;100.00;102570.22;5089065;28;20103;-66
2021/03/23 05:26:11;;;;;;;74.53;36.00;;;;;;;5.13;100.00;102571.09;5089342;28;20110;-66
2021/03/23 05:28:36;;;;;;;78.30;36.13;;;;;;;5.12;100.00;102572.81;5090068;28;20683;-66
2021/03/23 05:31:04;;;;;;;88.93;35.17;;;;;;;5.10;100.00;102569.31;5091904;28;20040;-66
2021/03/23 05:33:29;;;;;;;82.35;34.97;;;;;;;5.08;100.00;102578.91;5090480;28;20125;-66
2021/03/23 05:35:57;;;;;;;77.57;34.95;;;;;;;5.05;100.00;102568.41;5087282;28;20032;-66
2021/03/23 05:38:23;;;;;;;87.63;36.67;;;;;;;5.00;100.00;102580.59;5089607;28;20030;-66
2021/03/23 05:40:53;;;;;;;85.30;36.75;;;;;;;5.06;100.00;102577.13;5087077;28;20032;-66
2021/03/23 05:43:30;;;;;;;79.28;36.42;;;;;;;5.01;100.00;102581.47;5083743;28;20195;-66
2021/03/23 05:46:19;;;;;;;77.40;35.38;;;;;;;5.01;100.00;102579.72;5088746;28;20111;-67
2021/03/23 05:49:01;;;;;;;94.70;35.50;;;;;;;4.97;100.00;102583.22;5069341;28;20043;-67
2021/03/23 05:51:38;;;;;;;95.18;34.70;;;;;;;4.99;100.00;102578.84;5084991;28;20028;-68
2021/03/23 05:54:33;;;;;;;79.60;35.55;;;;;;;5.03;100.00;102588.50;5083021;28;20028;-67
2021/03/23 05:57:12;;;;;;;86.03;36.13;;;;;;;5.04;100.00;102599.84;5085636;28;20136;-67
2021/03/23 05:59:52;;;;;;;90.85;37.20;;;;;;;4.99;100.00;102596.31;5080966;28;20035;-67
2021/03/23 06:02:27;;;;;;;96.50;38.85;;;;;;;5.07;100.00;102587.66;5086980;28;20052;-66
2021/03/23 06:05:09;;;;;;;92.40;37.78;;;;;;;5.07;100.00;102590.28;5090485;28;20040;-67
2021/03/23 06:07:38;;;;;;;76.90;35.10;;;;;;;5.08;100.00;102594.63;5083145;28;20406;-66
2021/03/23 06:10:20;;;;;;;90.68;37.30;;;;;;;5.04;100.00;102592.88;5084753;28;20362;-66
2021/03/23 06:12:51;;;;;;;89.45;37.25;;;;;;;5.06;100.00;102582.38;5084322;28;20398;-66
2021/03/23 06:15:25;;;;;;;92.80;38.17;;;;;;;5.07;100.00;102586.75;5082436;28;20024;-66
2021/03/23 06:17:58;;;;;;;83.93;34.10;;;;;;;5.03;100.00;102592.88;5087830;28;20032;-66
2021/03/23 06:20:37;;;;;;;87.18;39.78;;;;;;;5.08;100.00;102584.16;5088930;28;20149;-66
2021/03/23 06:23:30;;;;;;;86.60;34.83;;;;;;;5.07;100.00;102587.66;5089838;28;20153;-66
2021/03/23 06:26:10;;;;;;;87.20;38.03;;;;;;;5.07;100.00;102594.59;5090248;28;20032;-66
2021/03/23 06:28:59;;;;;;;87.60;36.33;;;;;;;5.19;100.00;102589.47;5089105;28;20034;-65
2021/03/23 06:31:36;;;;;;;89.28;36.60;;;;;;;5.13;100.00;102590.31;5080894;28;20036;-66
2021/03/23 06:34:02;;;;;;;88.88;36.67;;;;;;;5.20;100.00;102593.81;5082476;28;20028;-75
2021/03/23 06:36:31;;;;;;;91.45;37.10;;;;;;;5.14;100.00;102589.44;5090048;28;20027;-75
2021/03/23 06:38:56;;;;;;;92.07;36.38;;;;;;;5.22;100.00;102599.06;5091231;28;20073;-75
2021/03/23 06:41:31;;;;;;;92.97;38.08;;;;;;;5.18;100.00;102595.56;5070356;28;20061;-75
2021/03/23 06:44:16;;;;;;;103.00;39.97;;;;;;;5.23;100.00;102591.22;5090515;28;20346;-75
2021/03/23 06:46:47;;;;;;;110.47;37.17;;;;;;;5.27;100.00;102589.47;5090076;28;20505;-76
2021/03/23 06:49:15;;;;;;;97.45;36.60;;;;;;;5.16;100.00;102597.28;5092667;28;20027;-75
2021/03/23 06:52:00;;;;;;;103.18;37.22;;;;;;;5.23;100.00;102600.84;5087036;28;20024;-76
2021/03/23 06:54:27;;;;;;;103.00;37.45;;;;;;;5.27;100.00;102603.50;5094939;28;20461;-75
2021/03/23 06:57:10;;;;;;;100.00;38.45;;;;;;;5.24;100.00;102603.47;5093825;28;20048;-76
2021/03/23 06:59:58;;;;;;;94.18;35.53;;;;;;;5.24;100.00;102603.47;5094984;28;20026;-75
2021/03/23 07:02:36;;;;;;;93.70;36.15;;;;;;;5.33;100.00;102607.91;5093210;28;20020;-75
2021/03/23 07:05:37;;;;;;;97.50;36.05;;;;;;;5.33;100.00;102605.28;5093467;28;20085;-75
2021/03/23 07:08:18;;;;;;;108.05;37.30;;;;;;;5.31;100.00;102601.75;5072393;28;20043;-75
2021/03/23 07:10:52;;;;;;;96.18;34.60;;;;;;;5.32;100.00;102603.50;5086360;28;20706;-72
2021/03/23 07:13:27;;;;;;;100.40;37.13;;;;;;;5.30;100.00;102608.75;5088332;28;20039;-73
2021/03/23 07:15:59;;;;;;;109.88;38.22;;;;;;;5.29;100.00;102611.38;5086290;28;20381;-73
2021/03/23 07:18:28;;;;;;;96.60;36.60;;;;;;;5.31;100.00;102605.25;5064544;28;20031;-74
2021/03/23 07:20:58;;;;;;;105.35;37.35;;;;;;;5.32;100.00;102613.97;5076320;28;20108;-72
2021/03/23 07:23:32;;;;;;;111.15;36.78;;;;;;;5.32;100.00;102616.59;5084441;28;20038;-72
2021/03/23 07:26:12;;;;;;;97.60;38.30;;;;;;;5.38;100.00;102612.28;5086584;28;20105;-74
2021/03/23 07:28:39;;;;;;;101.95;36.38;;;;;;;5.45;100.00;102606.19;5087174;28;20031;-72
2021/03/23 07:31:15;;;;;;;115.75;39.58;;;;;;;5.51;100.00;102615.84;5082939;28;20769;-72
2021/03/23 07:33:40;;;;;;;;;;;;;;;5.56;100.00;102624.59;5067584;28;20023;-74
2021/03/23 07:36:08;;;;;;;100.65;35.88;;;;;;;5.49;100.00;102614.97;5058913;28;19916;-74
2021/03/23 07:38:48;;;;;;;106.20;34.40;;;;;;;5.62;100.00;102629.91;5081781;28;20062;-73
2021/03/23 07:41:23;;;;;;;90.05;34.50;;;;;;;5.59;100.00;102623.75;5085660;28;20094;-73
2021/03/23 07:44:02;;;;;;;94.68;35.65;;;;;;;5.67;100.00;102629.88;5085843;28;20036;-72
2021/03/23 07:46:31;;;;;;;87.85;34.47;;;;;;;5.72;100.00;102638.66;5070860;28;20397;-73
2021/03/23 07:49:05;;;;;;;87.68;35.72;;;;;;;5.72;100.00;102636.03;5088361;28;20027;-73
2021/03/23 07:51:37;;;;;;;87.40;34.75;;;;;;;5.83;100.00;102642.22;5082572;28;20069;-72
2021/03/23 07:54:33;;;;;;;93.03;36.53;;;;;;;5.96;100.00;102644.03;5088688;28;20052;-74
2021/03/23 07:57:26;;;;;;;95.18;35.53;;;;;;;5.94;100.00;102651.03;5086031;28;20051;-73
2021/03/23 08:00:14;;;;;;;85.88;34.38;;;;;;;6.09;100.00;102651.97;5068283;28;20028;-74
2021/03/23 08:03:07;;;;;;;84.35;34.03;;;;;;;6.18;100.00;102658.13;5082965;28;20028;-74
2021/03/23 08:05:47;;;;;;;82.05;34.17;;;;;;;6.20;100.00;102664.25;5084450;28;20030;-73
2021/03/23 08:08:38;;;;;;;86.45;33.58;;;;;;;6.35;100.00;102660.78;5083738;28;20054;-75
2021/03/23 08:11:19;;;;;;;79.75;33.53;;;;;;;6.41;100.00;102665.16;5082849;28;20530;-75
2021/03/23 08:14:07;;;;;;;84.63;33.67;;;;;;;6.42;100.00;102654.66;5080500;28;20028;-74
2021/03/23 08:16:53;;;;;;;80.63;34.60;;;;;;;6.55;100.00;102650.31;5085350;28;20024;-74
2021/03/23 08:19:37;;;;;;;;;;;;;;;6.60;100.00;102653.81;5082683;28;20028;-76
2021/03/23 08:22:33;;;;;;;68.40;31.17;;;;;;;6.58;100.00;102663.47;5085324;28;20438;-75
2021/03/23 08:25:36;;;;;;;66.28;26.77;;;;;;;6.66;100.00;102660.81;5085157;28;20090;-74
2021/03/23 08:28:19;;;;;;;70.78;32.20;;;;;;;6.71;100.00;102661.69;5086143;28;20402;-74
2021/03/23 08:30:58;;;;;;;86.80;34.33;;;;;;;6.76;100.00;102665.19;5083212;28;20028;-74
2021/03/23 08:33:40;;;;;;;69.68;32.33;;;;;;;6.89;100.00;102660.84;5085860;28;20019;-75
2021/03/23 08:36:33;;;;;;;82.95;33.60;;;;;;;6.85;100.00;102666.97;5085688;28;20028;-74
2021/03/23 08:39:25;;;;;;;71.65;32.05;;;;;;;6.79;100.00;102662.59;5086537;28;20047;-75
2021/03/23 08:42:24;;;;;;;77.63;34.70;;;;;;;6.82;100.00;102673.09;5065998;28;20042;-74
2021/03/23 08:44:58;;;;;;;75.88;31.02;;;;;;;6.76;100.00;102667.84;5079572;28;20838;-73
2021/03/23 08:47:29;;;;;;;79.80;33.58;;;;;;;6.82;100.00;102659.94;5085543;28;20043;-74
2021/03/23 08:49:58;;;;;;;82.75;35.90;;;;;;;6.84;100.00;102662.59;5085555;28;20040;-75
2021/03/23 08:52:26;;;;;;;76.68;32.65;;;;;;;6.94;100.00;102652.06;5086158;28;20362;-72
2021/03/23 08:54:52;;;;;;;78.78;33.28;;;;;;;6.97;100.00;102657.31;5083688;28;20028;-72
2021/03/23 08:57:18;;;;;;;70.97;32.33;;;;;;;6.97;100.00;102664.31;5066124;28;20032;-73
2021/03/23 08:59:47;;;;;;;70.95;31.52;;;;;;;6.98;100.00;102663.47;5072490;28;20929;-75
2021/03/23 09:02:13;;;;;;;82.10;31.60;;;;;;;6.95;100.00;102659.06;5066333;28;20358;-72
2021/03/23 09:04:53;;;;;;;80.95;32.15;;;;;;;6.93;100.00;102667.84;5070472;28;20032;-72
2021/03/23 09:07:31;;;;;;;78.22;32.95;;;;;;;6.82;100.00;102659.94;5064501;28;20799;-71
2021/03/23 09:09:56;;;;;;;75.70;32.33;;;;;;;6.92;100.00;102650.31;5062371;28;20060;-72
2021/03/23 09:12:42;;;;;;;68.07;31.90;;;;;;;7.08;100.00;102654.69;5070592;28;20107;-72
2021/03/23 09:15:11;;;;;;;66.68;32.15;;;;;;;7.07;100.00;102662.56;5062839;28;20032;-72
2021/03/23 09:17:50;;;;;;;70.13;31.90;;;;;;;7.03;100.00;102664.34;5061008;28;20032;-73
2021/03/23 09:20:30;;;;;;;69.90;31.38;;;;;;;7.13;100.00;102665.19;5061211;28;20032;-72
2021/03/23 09:22:56;;;;;;;75.10;33.33;;;;;;;7.11;100.00;102659.94;5066162;28;20024;-74
2021/03/23 09:25:43;;;;;;;66.80;32.58;;;;;;;7.19;100.00;102667.81;5064792;28;20036;-72
2021/03/23 09:28:11;;;;;;;82.30;32.67;;;;;;;7.30;100.00;102663.41;5056288;28;20029;-72
2021/03/23 09:30:49;;;;;;;79.78;33.30;;;;;;;7.31;100.00;102666.94;5061121;28;20103;-74
2021/03/23 09:33:23;;;;;;;66.78;31.50;;;;;;;7.40;100.00;102670.41;5071715;28;20035;-70
2021/03/23 09:36:03;;;;;;;84.05;33.53;;;;;;;7.40;100.00;102654.63;5067650;28;20017;-71
2021/03/23 09:38:36;;;;;;;79.15;33.55;;;;;;;7.51;100.00;102666.00;5065718;28;20093;-72
2021/03/23 09:41:05;;;;;;;75.78;36.45;;;;;;;7.55;100.00;102666.00;5046939;28;20734;-72
2021/03/23 09:43:32;;;;;;;76.05;33.58;;;;;;;7.59;100.00;102660.72;5065139;28;20111;-73
2021/03/23 09:46:36;;;;;;;70.90;34.60;;;;;;;7.60;100.00;102672.13;5047793;28;20113;-73
2021/03/23 09:49:20;;;;;;;81.38;33.65;;;;;;;7.65;100.00;102668.59;5064051;28;20128;-73
2021/03/23 09:51:48;;;;;;;78.32;35.58;;;;;;;7.81;100.00;102669.41;5062175;28;20363;-73
2021/03/23 09:54:36;;;;;;;74.13;34.17;;;;;;;7.81;100.00;102665.91;5062641;28;20028;-72
2021/03/23 09:57:18;;;;;;;74.30;33.55;;;;;;;7.87;100.00;102664.13;5055832;28;20052;-75
2021/03/23 09:59:46;;;;;;;76.20;33.03;;;;;;;7.78;100.00;102662.41;5055769;28;20036;-72
2021/03/23 10:02:33;;;;;;;74.50;33.03;;;;;;;7.80;100.00;102662.41;5059862;28;20025;-71
2021/03/23 10:05:18;;;;;;;;;;;;;;;7.81;100.00;102656.25;5058218;28;20036;-72
2021/03/23 10:07:44;;;;;;;78.05;35.33;;;;;;;7.84;100.00;102664.16;5031401;28;19939;-73
2021/03/23 10:10:13;;;;;;;71.75;32.85;;;;;;;7.90;100.00;102663.25;5038579;28;20032;-72
2021/03/23 10:12:39;;;;;;;72.20;33.58;;;;;;;7.85;100.00;102665.00;5045261;28;20099;-72
2021/03/23 10:15:34;;;;;;;85.00;36.50;;;;;;;7.97;100.00;102657.91;5059088;28;20033;-72
2021/03/23 10:18:12;;;;;;;75.78;35.05;;;;;;;7.92;100.00;102657.06;5059080;28;20088;-70
2021/03/23 10:20:38;;;;;;;71.32;33.22;;;;;;;7.88;100.00;102652.72;5060386;28;20028;-70
2021/03/23 10:23:04;;;;;;;80.85;36.42;;;;;;;7.94;100.00;102650.06;5057759;28;20037;-74
2021/03/23 10:25:30;;;;;;;78.35;36.17;;;;;;;8.10;100.00;102649.97;5057163;28;20032;-72
2021/03/23 10:28:00;;;;;;;81.55;38.17;;;;;;;8.10;100.00;102644.72;5053923;28;20428;-71
2021/03/23 10:30:33;;;;;;;78.57;36.90;;;;;;;8.16;100.00;102647.31;5053637;28;20033;-71
2021/03/23 10:33:20;;;;;;;67.07;35.47;;;;;;;8.18;100.00;102637.63;5057749;28;20043;-73
2021/03/23 10:35:56;;;;;;;80.50;37.35;;;;;;;8.24;100.00;102642.88;5058178;28;20036;-73
2021/03/23 10:38:36;;;;;;;76.93;36.80;;;;;;;8.39;100.00;102644.56;5055161;28;20059;-73
2021/03/23 10:41:24;;;;;;;72.03;32.92;;;;;;;8.30;100.00;102656.00;5045292;28;20478;-72
2021/03/23 10:43:52;;;;;;;71.60;33.78;;;;;;;8.40;100.00;102656.84;5043350;28;20512;-72
2021/03/23 10:46:30;;;;;;;72.20;34.97;;;;;;;8.39;100.00;102668.28;5057877;28;20883;-72
2021/03/23 10:49:27;;;;;;;81.28;38.10;;;;;;;8.34;100.00;102665.66;5061052;28;20024;-73
2021/03/23 10:51:55;;;;;;;90.45;39.38;;;;;;;8.31;100.00;102661.25;5083285;28;20039;-72
2021/03/23 10:54:26;;;;;;;71.53;36.22;;;;;;;8.26;100.00;102662.16;5077776;28;20032;-72
2021/03/23 10:56:54;;;;;;;68.57;34.50;;;;;;;8.30;100.00;102654.25;5086030;28;20147;-72
2021/03/23 10:59:20;;;;;;;63.55;34.83;;;;;;;8.44;100.00;102663.88;5067878;28;20432;-72
2021/03/23 11:02:17;;;;;;;68.85;33.90;;;;;;;8.35;100.00;102656.84;5083085;28;20024;-72
2021/03/23 11:05:09;;;;;;;65.45;33.63;;;;;;;8.23;100.00;102660.44;5081462;28;20043;-72
2021/03/23 11:07:38;;;;;;;68.47;36.55;;;;;;;8.27;100.00;102663.91;5080714;28;20058;-72
2021/03/23 11:10:09;;;;;;;70.95;34.90;;;;;;;8.37;100.00;102673.53;5081697;28;20020;-73
2021/03/23 11:12:35;;;;;;;67.43;33.88;;;;;;;8.33;100.00;102671.78;5082580;28;20035;-73
2021/03/23 11:15:00;;;;;;;72.38;34.53;;;;;;;8.32;100.00;102673.53;5065425;28;20024;-73
2021/03/23 11:17:28;;;;;;;69.97;32.42;;;;;;;8.32;100.00;102668.28;5081445;28;20032;-73
2021/03/23 11:20:00;;;;;;;64.32;32.05;;;;;;;8.39;100.00;102663.03;5079673;28;20061;-73
2021/03/23 11:22:31;;;;;;;63.05;32.47;;;;;;;8.32;100.00;102662.13;5067348;28;20024;-73
2021/03/23 11:24:57;;;;;;;67.75;32.80;;;;;;;8.38;100.00;102664.75;5079651;28;20855;-74
2021/03/23 11:27:26;;;;;;;65.38;33.85;;;;;;;8.50;100.00;102663.81;5083596;28;20024;-72
2021/03/23 11:29:56;;;;;;;63.30;33.75;;;;;;;8.54;100.00;102662.91;5080178;28;20069;-72